createdAt,value
2023-05-25T00:00:15.063Z,64208.99
2023-05-25T00:01:17.163Z,64213.39
2023-05-25T00:02:19.289Z,64218.68
2023-05-25T00:03:21.373Z,64209.42
2023-05-25T00:04:23.531Z,64208.99
2023-05-25T00:05:26.196Z,64200.27
2023-05-25T00:06:29.204Z,64195.87
2023-05-25T00:07:31.483Z,64192.00
2023-05-25T00:08:33.412Z,64189.80
2023-05-25T00:09:35.348Z,64191.24
2023-05-25T00:10:38.403Z,64189.80
2023-05-25T00:11:40.373Z,64196.86
2023-05-25T00:12:42.471Z,64203.36
2023-05-25T00:13:44.460Z,64195.75
2023-05-25T00:14:46.554Z,64192.00
2023-05-25T00:15:49.211Z,64198.40
2023-05-25T00:16:51.363Z,64195.30
2023-05-25T00:17:53.352Z,64161.68
2023-05-25T00:18:55.430Z,64151.75
2023-05-25T00:19:59.211Z,64136.33
2023-05-25T00:21:01.366Z,64147.45
2023-05-25T00:22:03.562Z,64152.75
2023-05-25T00:23:05.541Z,64152.30
2023-05-25T00:24:08.395Z,64157.80
2023-05-25T00:25:10.501Z,64161.02
2023-05-25T00:26:13.035Z,64157.80
2023-05-25T00:27:14.926Z,64161.35
2023-05-25T00:28:17.952Z,64175.88
2023-05-25T00:29:19.967Z,64179.64
2023-05-25T00:30:22.182Z,64168.18
2023-05-25T00:31:24.257Z,64179.09
2023-05-25T00:32:26.250Z,64154.95
2023-05-25T00:33:28.392Z,64160.57
2023-05-25T00:34:30.418Z,64169.38
2023-05-25T00:35:32.467Z,64170.37
2023-05-25T00:36:34.657Z,64163.87
2023-05-25T00:37:36.651Z,64146.68
2023-05-25T00:38:38.560Z,64150.10
2023-05-25T00:39:40.667Z,64143.16
2023-05-25T00:40:44.023Z,64150.98
2023-05-25T00:41:48.369Z,64149.44
2023-05-25T00:42:51.723Z,64147.90
2023-05-25T00:43:53.817Z,64144.59
2023-05-25T00:44:55.689Z,64144.59
2023-05-25T00:45:57.691Z,64155.61
2023-05-25T00:47:00.418Z,64141.29
2023-05-25T00:48:03.871Z,64149.98
2023-05-25T00:49:06.107Z,64153.20
2023-05-25T00:50:09.810Z,64152.09
2023-05-25T00:51:14.945Z,64150.43
2023-05-25T00:52:17.085Z,64147.12
2023-05-25T00:53:18.957Z,64138.86
2023-05-25T00:54:20.894Z,64138.86
2023-05-25T00:55:24.706Z,64139.42
2023-05-25T00:56:30.394Z,64126.41
2023-05-25T00:57:34.767Z,64125.32
2023-05-25T00:58:39.840Z,64130.26
2023-05-25T00:59:45.643Z,64128.06
2023-05-25T01:00:50.264Z,64133.90
2023-05-25T01:01:54.762Z,64121.45
2023-05-25T01:02:58.829Z,64119.25
2023-05-25T01:04:02.931Z,64112.75
2023-05-25T01:05:08.196Z,64119.70
2023-05-25T01:06:14.512Z,64123.00
2023-05-25T01:07:23.905Z,64102.62
2023-05-25T01:08:27.364Z,64052.92
2023-05-25T01:09:32.040Z,64066.82
2023-05-25T01:10:36.700Z,64077.73
2023-05-25T01:11:42.152Z,64088.19
2023-05-25T01:12:45.908Z,64092.70
2023-05-25T01:13:50.396Z,64098.66
2023-05-25T01:14:54.539Z,64096.12
2023-05-25T01:15:57.401Z,64098.32
2023-05-25T01:17:00.058Z,64090.60
2023-05-25T01:18:02.141Z,64096.12
2023-05-25T01:19:04.109Z,64095.56
2023-05-25T01:20:11.317Z,64080.14
2023-05-25T01:22:31.438Z,64068.48
2023-05-25T01:23:36.378Z,64075.18
2023-05-25T01:24:42.060Z,64085.10
2023-05-25T01:25:47.812Z,64098.11
2023-05-25T01:26:56.451Z,64099.41
2023-05-25T01:28:02.128Z,64110.23
2023-05-25T01:29:05.751Z,64109.66
2023-05-25T01:30:11.881Z,64107.13
2023-05-25T01:31:14.333Z,64102.72
2023-05-25T01:32:17.984Z,64103.29
2023-05-25T01:33:20.632Z,64105.36
2023-05-25T01:34:24.253Z,64109.33
2023-05-25T01:35:27.489Z,64111.31
2023-05-25T01:36:29.616Z,64103.83
2023-05-25T01:37:31.757Z,64106.47
2023-05-25T01:38:34.702Z,64103.07
2023-05-25T01:39:36.599Z,64098.21
2023-05-25T01:40:38.738Z,64090.06
2023-05-25T01:41:40.714Z,64091.71
2023-05-25T01:42:43.041Z,64089.52
2023-05-25T01:43:45.350Z,64087.30
2023-05-25T01:44:47.910Z,64086.00
2023-05-25T01:45:53.742Z,64081.13
2023-05-25T01:47:11.753Z,64082.69
2023-05-25T01:48:20.328Z,64076.08
2023-05-25T01:49:38.123Z,64059.77
2023-05-25T01:50:49.684Z,64061.98
2023-05-25T01:52:19.812Z,64054.03
2023-05-25T01:53:24.830Z,64047.54
2023-05-25T01:54:30.539Z,64047.98
2023-05-25T01:55:36.138Z,64054.15
2023-05-25T01:56:39.535Z,64058.68
2023-05-25T01:57:44.811Z,64047.64
2023-05-25T01:58:49.905Z,64040.48
2023-05-25T01:59:54.565Z,64054.81
2023-05-25T02:00:58.312Z,64022.09
2023-05-25T02:02:02.677Z,64031.80
2023-05-25T02:03:04.969Z,64031.68
2023-05-25T02:04:08.198Z,64047.09
2023-05-25T02:05:11.220Z,64032.57
2023-05-25T02:06:14.903Z,64016.71
2023-05-25T02:07:16.943Z,64040.48
2023-05-25T02:08:18.865Z,64063.40
2023-05-25T02:09:20.973Z,64067.93
2023-05-25T02:10:22.985Z,64070.67
2023-05-25T02:11:24.935Z,64070.13
2023-05-25T02:12:27.137Z,64080.14
2023-05-25T02:13:29.274Z,64075.18
2023-05-25T02:14:31.321Z,64098.21
2023-05-25T02:15:34.342Z,64109.89
2023-05-25T02:16:36.502Z,64089.40
2023-05-25T02:17:38.540Z,64082.46
2023-05-25T02:18:40.550Z,64080.04
2023-05-25T02:19:43.107Z,64054.03
2023-05-25T02:20:45.257Z,64062.53
2023-05-25T02:21:47.182Z,64091.71
2023-05-25T02:22:49.066Z,64101.96
2023-05-25T02:23:52.203Z,64095.02
2023-05-25T02:24:54.122Z,64061.54
2023-05-25T02:25:56.117Z,64070.67
2023-05-25T02:26:58.138Z,64067.60
2023-05-25T02:28:00.176Z,64065.29
2023-05-25T02:29:03.520Z,64070.57
2023-05-25T02:30:07.180Z,64060.87
2023-05-25T02:31:09.299Z,64057.57
2023-05-25T02:32:11.750Z,64048.08
2023-05-25T02:33:13.708Z,64042.58
2023-05-25T02:34:15.763Z,64043.24
2023-05-25T02:35:17.671Z,64055.23
2023-05-25T02:36:20.398Z,64059.53
2023-05-25T02:37:22.404Z,64054.25
2023-05-25T02:38:24.950Z,64061.32
2023-05-25T02:39:26.851Z,64073.53
2023-05-25T02:40:28.862Z,64097.21
2023-05-25T02:41:30.944Z,64082.90
2023-05-25T02:42:34.905Z,64095.89
2023-05-25T02:43:36.937Z,64082.24
2023-05-25T02:44:39.004Z,64088.86
2023-05-25T02:45:40.942Z,64066.94
2023-05-25T02:46:43.251Z,64087.75
2023-05-25T02:47:45.366Z,64067.93
2023-05-25T02:48:47.444Z,64089.94
2023-05-25T02:49:49.448Z,64080.59
2023-05-25T02:50:51.654Z,64081.13
2023-05-25T02:51:53.719Z,64052.92
2023-05-25T02:52:55.887Z,64069.68
2023-05-25T02:53:57.920Z,64057.12
2023-05-25T02:55:00.249Z,64082.69
2023-05-25T02:56:03.226Z,64078.94
2023-05-25T02:57:05.981Z,64033.87
2023-05-25T02:58:08.591Z,64053.48
2023-05-25T02:59:10.496Z,64070.13
2023-05-25T03:00:14.555Z,64082.69
2023-05-25T03:01:16.668Z,64100.97
2023-05-25T03:02:18.773Z,64094.80
2023-05-25T03:03:20.829Z,64096.55
2023-05-25T03:04:22.861Z,64090.60
2023-05-25T03:05:24.758Z,64106.02
2023-05-25T03:06:27.062Z,64121.89
2023-05-25T03:07:29.067Z,64086.09
2023-05-25T03:08:30.970Z,64077.16
2023-05-25T03:09:32.999Z,64093.15
2023-05-25T03:10:35.110Z,64074.52
2023-05-25T03:11:37.085Z,64056.23
2023-05-25T03:12:38.984Z,64046.97
2023-05-25T03:13:41.012Z,64022.75
2023-05-25T03:14:43.065Z,64044.78
2023-05-25T03:15:45.194Z,64061.42
2023-05-25T03:16:47.696Z,64057.57
2023-05-25T03:17:49.854Z,64079.05
2023-05-25T03:18:52.027Z,64090.72
2023-05-25T03:19:54.092Z,64104.94
2023-05-25T03:20:56.360Z,64115.73
2023-05-25T03:21:58.391Z,64114.62
2023-05-25T03:23:01.792Z,64127.85
2023-05-25T03:24:04.359Z,64132.36
2023-05-25T03:25:07.457Z,64139.52
2023-05-25T03:26:09.792Z,64118.14
2023-05-25T03:27:12.171Z,64108.01
2023-05-25T03:28:14.308Z,64122.44
2023-05-25T03:29:16.361Z,64131.82
2023-05-25T03:30:18.499Z,64139.96
2023-05-25T03:31:20.676Z,64168.62
2023-05-25T03:32:22.881Z,64178.53
2023-05-25T03:33:26.045Z,64183.30
2023-05-25T03:34:30.266Z,64199.06
2023-05-25T03:35:32.539Z,64199.06
2023-05-25T03:36:34.843Z,64208.54
2023-05-25T03:37:37.328Z,64211.85
2023-05-25T03:38:42.398Z,64219.55
2023-05-25T03:39:44.491Z,64217.80
2023-05-25T03:40:46.757Z,64213.05
2023-05-25T03:41:48.899Z,64218.47
2023-05-25T03:42:51.067Z,64227.83
2023-05-25T03:43:53.154Z,64224.64
2023-05-25T03:44:55.619Z,64228.82
2023-05-25T03:45:58.737Z,64226.29
2023-05-25T03:47:01.332Z,64236.10
2023-05-25T03:48:04.171Z,64249.44
2023-05-25T03:49:06.568Z,64252.09
2023-05-25T03:50:10.493Z,64261.47
2023-05-25T03:51:12.539Z,64261.90
2023-05-25T03:52:14.778Z,64242.72
2023-05-25T03:53:17.317Z,64245.26
2023-05-25T03:54:19.370Z,64254.31
2023-05-25T03:55:21.559Z,64257.05
2023-05-25T03:56:23.689Z,64274.15
2023-05-25T03:57:25.888Z,64275.03
2023-05-25T03:58:28.182Z,64283.52
2023-05-25T03:59:31.117Z,64290.59
2023-05-25T04:00:33.356Z,64287.94
2023-05-25T04:01:35.658Z,64292.79
2023-05-25T04:02:37.871Z,64299.55
2023-05-25T04:03:40.298Z,64297.89
2023-05-25T04:04:42.525Z,64306.71
2023-05-25T04:05:45.051Z,64307.83
2023-05-25T04:06:47.462Z,64319.96
2023-05-25T04:07:49.523Z,64325.48
2023-05-25T04:08:52.340Z,64329.45
2023-05-25T04:09:54.446Z,64353.95
2023-05-25T04:10:56.626Z,64367.41
2023-05-25T04:11:58.672Z,64392.15
2023-05-25T04:13:00.747Z,64419.32
2023-05-25T04:14:02.896Z,64431.57
2023-05-25T04:15:06.919Z,64439.41
2023-05-25T04:16:09.756Z,64473.45
2023-05-25T04:17:12.004Z,64490.67
2023-05-25T04:18:14.278Z,64509.34
2023-05-25T04:19:16.274Z,64501.62
2023-05-25T04:20:18.577Z,64504.59
2023-05-25T04:21:21.052Z,64537.65
2023-05-25T04:22:23.131Z,64563.73
2023-05-25T04:23:25.257Z,64596.81
2023-05-25T04:24:28.365Z,64620.05
2023-05-25T04:25:30.479Z,64634.53
2023-05-25T04:26:33.144Z,64652.13
2023-05-25T04:27:35.920Z,64652.57
2023-05-25T04:28:38.670Z,64642.37
2023-05-25T04:29:40.980Z,64675.82
2023-05-25T04:30:43.111Z,64671.60
2023-05-25T04:31:45.165Z,64683.66
2023-05-25T04:32:47.246Z,64658.12
2023-05-25T04:33:49.359Z,64668.63
2023-05-25T04:34:51.440Z,64659.41
2023-05-25T04:35:53.335Z,64706.91
2023-05-25T04:36:55.430Z,64696.84
2023-05-25T04:37:57.344Z,64724.72
2023-05-25T04:38:59.427Z,64715.21
2023-05-25T04:40:01.343Z,64713.20
2023-05-25T04:41:03.335Z,64744.00
2023-05-25T04:42:05.957Z,64786.53
2023-05-25T04:43:08.036Z,64798.92
2023-05-25T04:44:10.699Z,64798.92
2023-05-25T04:45:13.470Z,64804.46
2023-05-25T04:46:15.979Z,64825.52
2023-05-25T04:47:18.745Z,64836.48
2023-05-25T04:48:20.978Z,64838.25
2023-05-25T04:49:23.342Z,64836.13
2023-05-25T04:50:25.409Z,64808.71
2023-05-25T04:51:27.336Z,64722.52
2023-05-25T04:52:30.549Z,64710.34
2023-05-25T04:53:32.996Z,64725.18
2023-05-25T04:54:34.929Z,64735.15
2023-05-25T04:55:38.958Z,64749.54
2023-05-25T04:56:41.126Z,64740.13
2023-05-25T04:57:43.181Z,64737.82
2023-05-25T04:58:45.100Z,64730.16
2023-05-25T04:59:47.284Z,64752.50
2023-05-25T05:00:51.226Z,64776.20
2023-05-25T05:01:53.320Z,64762.36
2023-05-25T05:02:56.268Z,64797.18
2023-05-25T05:03:58.497Z,64773.07
2023-05-25T05:05:01.263Z,64842.12
2023-05-25T05:06:03.767Z,64884.05
2023-05-25T05:07:05.779Z,64901.98
2023-05-25T05:08:07.670Z,64924.34
2023-05-25T05:09:09.719Z,64936.54
2023-05-25T05:10:12.580Z,64959.83
2023-05-25T05:11:14.670Z,64991.81
2023-05-25T05:12:16.599Z,65002.89
2023-05-25T05:13:18.681Z,65017.31
2023-05-25T05:14:20.595Z,65033.41
2023-05-25T05:15:22.755Z,65049.51
2023-05-25T05:16:25.652Z,65060.60
2023-05-25T05:17:27.657Z,65023.96
2023-05-25T05:18:30.674Z,64984.04
2023-05-25T05:19:32.696Z,65020.64
2023-05-25T05:20:35.021Z,64991.25
2023-05-25T05:21:37.096Z,64950.76
2023-05-25T05:22:39.169Z,64922.39
2023-05-25T05:23:44.650Z,64911.96
2023-05-25T05:24:47.145Z,64936.35
2023-05-25T05:25:49.071Z,64946.96
2023-05-25T05:26:58.072Z,64947.43
2023-05-25T05:27:54.995Z,64974.62
2023-05-25T05:28:57.039Z,64954.55
2023-05-25T05:29:59.057Z,65043.40
2023-05-25T05:31:01.414Z,65043.40
2023-05-25T05:32:03.583Z,65039.50
2023-05-25T05:33:05.554Z,65008.44
2023-05-25T05:34:07.698Z,65046.73
2023-05-25T05:35:09.894Z,65066.16
2023-05-25T05:36:12.745Z,65095.65
2023-05-25T05:37:14.874Z,65103.33
2023-05-25T05:38:18.349Z,65091.02
2023-05-25T05:39:20.348Z,65120.09
2023-05-25T05:40:22.374Z,65133.32
2023-05-25T05:41:24.377Z,65140.55
2023-05-25T05:42:26.418Z,65080.58
2023-05-25T05:43:28.386Z,65087.79
2023-05-25T05:44:30.405Z,65049.04
2023-05-25T05:45:32.426Z,65051.27
2023-05-25T05:46:34.571Z,65093.44
2023-05-25T05:47:36.629Z,65071.06
2023-05-25T05:48:38.995Z,65112.13
2023-05-25T05:49:40.985Z,65133.42
2023-05-25T05:50:43.002Z,65150.70
2023-05-25T05:51:44.898Z,65151.17
2023-05-25T05:52:46.799Z,65117.21
2023-05-25T05:53:48.682Z,65131.00
2023-05-25T05:54:50.726Z,65188.29
2023-05-25T05:55:55.856Z,65204.03
2023-05-25T05:56:56.831Z,65228.84
2023-05-25T05:57:58.989Z,65206.07
2023-05-25T05:59:00.890Z,65213.94
2023-05-25T06:00:05.883Z,65200.98
2023-05-25T06:01:08.011Z,65187.17
2023-05-25T06:02:09.998Z,65213.21
2023-05-25T06:03:12.213Z,65142.77
2023-05-25T06:04:14.453Z,65221.63
2023-05-25T06:05:17.064Z,65263.86
2023-05-25T06:06:20.326Z,65238.85
2023-05-25T06:07:22.224Z,65108.33
2023-05-25T06:08:24.145Z,65108.33
2023-05-25T06:09:26.115Z,65134.98
2023-05-25T06:10:28.199Z,65140.63
2023-05-25T06:11:30.100Z,65136.65
2023-05-25T06:12:32.123Z,65211.65
2023-05-25T06:13:34.134Z,65167.29
2023-05-25T06:14:36.121Z,65171.25
2023-05-25T06:15:38.895Z,65236.73
2023-05-25T06:16:41.151Z,65232.75
2023-05-25T06:17:43.350Z,65213.39
2023-05-25T06:18:45.470Z,65199.41
2023-05-25T06:19:47.568Z,65145.08
2023-05-25T06:20:50.018Z,65192.36
2023-05-25T06:21:52.087Z,65201.17
2023-05-25T06:22:54.088Z,65187.27
2023-05-25T06:23:56.194Z,65217.20
2023-05-25T06:24:58.106Z,65233.39
2023-05-25T06:26:06.194Z,65220.61
2023-05-25T06:27:08.239Z,65245.05
2023-05-25T06:28:10.930Z,65238.30
2023-05-25T06:29:16.699Z,65284.52
2023-05-25T06:30:18.370Z,65315.81
2023-05-25T06:31:20.351Z,65296.20
2023-05-25T06:32:22.464Z,65295.00
2023-05-25T06:33:24.577Z,65316.29
2023-05-25T06:34:26.458Z,65330.01
2023-05-25T06:35:29.424Z,65373.47
2023-05-25T06:36:32.389Z,65311.83
2023-05-25T06:37:34.502Z,65316.29
2023-05-25T06:38:36.909Z,65294.53
2023-05-25T06:39:38.794Z,65325.72
2023-05-25T06:40:40.980Z,65284.43
2023-05-25T06:41:43.061Z,65219.32
2023-05-25T06:42:45.373Z,65254.41
2023-05-25T06:43:47.273Z,65228.47
2023-05-25T06:44:49.311Z,65273.04
2023-05-25T06:45:51.361Z,65305.56
2023-05-25T06:46:53.408Z,65244.02
2023-05-25T06:47:55.418Z,65288.40
2023-05-25T06:48:58.972Z,65298.96
2023-05-25T06:50:01.385Z,65233.56
2023-05-25T06:51:03.609Z,65279.61
2023-05-25T06:52:05.611Z,65322.79
2023-05-25T06:53:07.637Z,65321.93
2023-05-25T06:54:09.508Z,65321.84
2023-05-25T06:55:11.648Z,65397.32
2023-05-25T06:56:14.156Z,65371.16
2023-05-25T06:57:16.050Z,65386.91
2023-05-25T06:58:17.962Z,65314.62
2023-05-25T06:59:19.857Z,65317.31
2023-05-25T07:00:21.976Z,65323.43
2023-05-25T07:01:24.037Z,65366.72
2023-05-25T07:02:26.694Z,65337.33
2023-05-25T07:03:28.786Z,65318.34
2023-05-25T07:04:30.798Z,65342.31
2023-05-25T07:05:32.776Z,65321.77
2023-05-25T07:06:34.908Z,65267.20
2023-05-25T07:07:36.867Z,65292.93
2023-05-25T07:08:38.764Z,65329.44
2023-05-25T07:09:40.692Z,65348.55
2023-05-25T07:10:42.685Z,65360.78
2023-05-25T07:11:44.586Z,65371.25
2023-05-25T07:12:46.486Z,65381.34
2023-05-25T07:13:48.593Z,65456.53
2023-05-25T07:14:50.889Z,65456.53
2023-05-25T07:15:53.030Z,65494.78
2023-05-25T07:16:55.228Z,65490.80
2023-05-25T07:17:57.410Z,65445.96
2023-05-25T07:19:00.314Z,65489.86
2023-05-25T07:20:04.405Z,65412.86
2023-05-25T07:21:07.654Z,65378.95
2023-05-25T07:22:09.725Z,65453.58
2023-05-25T07:23:12.216Z,65483.07
2023-05-25T07:24:14.238Z,65438.48
2023-05-25T07:25:16.271Z,65482.06
2023-05-25T07:26:18.432Z,65466.94
2023-05-25T07:27:20.323Z,65453.03
2023-05-25T07:28:22.337Z,65496.54
2023-05-25T07:29:24.255Z,65437.84
2023-05-25T07:30:26.741Z,65414.17
2023-05-25T07:31:28.652Z,65464.24
2023-05-25T07:32:31.087Z,65489.31
2023-05-25T07:33:33.136Z,65495.97
2023-05-25T07:34:35.333Z,65523.09
2023-05-25T07:35:37.288Z,65550.44
2023-05-25T07:36:39.285Z,65474.10
2023-05-25T07:37:41.208Z,65431.34
2023-05-25T07:38:43.101Z,65453.19
2023-05-25T07:39:46.073Z,65498.21
2023-05-25T07:40:48.188Z,65530.41
2023-05-25T07:41:50.090Z,65491.53
2023-05-25T07:42:52.598Z,65468.06
2023-05-25T07:43:54.720Z,65465.20
2023-05-25T07:44:56.726Z,65401.27
2023-05-25T07:45:59.759Z,65435.30
2023-05-25T07:47:01.925Z,65406.37
2023-05-25T07:48:04.499Z,65430.87
2023-05-25T07:49:06.930Z,65383.48
2023-05-25T07:50:10.043Z,65407.47
2023-05-25T07:51:11.952Z,65429.03
2023-05-25T07:52:14.051Z,65474.26
2023-05-25T07:53:16.252Z,65531.60
2023-05-25T07:54:19.630Z,65529.29
2023-05-25T07:55:22.268Z,65563.34
2023-05-25T07:56:24.389Z,65590.70
2023-05-25T07:57:26.689Z,65587.84
2023-05-25T07:58:28.676Z,65616.83
2023-05-25T07:59:30.584Z,65622.55
2023-05-25T08:00:32.934Z,65582.37
2023-05-25T08:01:34.931Z,65567.81
2023-05-25T08:02:36.908Z,65606.14
2023-05-25T08:03:48.881Z,65614.59
2023-05-25T08:04:43.012Z,65635.13
2023-05-25T08:05:45.559Z,65577.11
2023-05-25T08:06:50.293Z,65593.98
2023-05-25T08:07:52.379Z,65505.28
2023-05-25T08:08:54.300Z,65439.05
2023-05-25T08:09:56.265Z,65527.71
2023-05-25T08:10:59.536Z,65567.81
2023-05-25T08:12:24.149Z,65520.48
2023-05-25T08:13:05.275Z,65480.30
2023-05-25T08:14:07.308Z,65503.38
2023-05-25T08:15:09.445Z,65551.47
2023-05-25T08:16:11.989Z,65586.17
2023-05-25T08:17:13.967Z,65484.85
2023-05-25T08:18:15.986Z,65415.11
2023-05-25T08:19:17.887Z,65508.70
2023-05-25T08:20:20.037Z,65539.31
2023-05-25T08:21:22.439Z,65564.95
2023-05-25T08:22:24.342Z,65445.89
2023-05-25T08:23:26.493Z,65475.20
2023-05-25T08:24:28.367Z,65536.52
2023-05-25T08:25:30.286Z,65524.83
2023-05-25T08:26:41.702Z,65484.76
2023-05-25T08:27:36.795Z,65449.69
2023-05-25T08:28:38.921Z,65364.10
2023-05-25T08:29:40.942Z,65308.97
2023-05-25T08:30:44.455Z,65306.75
2023-05-25T08:31:46.469Z,65306.11
2023-05-25T08:32:48.561Z,65276.18
2023-05-25T08:33:50.564Z,65279.52
2023-05-25T08:34:52.461Z,65255.60
2023-05-25T08:35:54.409Z,65232.55
2023-05-25T08:36:57.135Z,65276.27
2023-05-25T08:37:59.061Z,65296.10
2023-05-25T08:39:02.261Z,65277.39
2023-05-25T08:40:07.324Z,65295.72
2023-05-25T08:41:11.440Z,65291.74
2023-05-25T08:42:13.456Z,65241.63
2023-05-25T08:43:15.362Z,65258.86
2023-05-25T08:44:17.352Z,65278.32
2023-05-25T08:45:33.506Z,65252.83
2023-05-25T08:46:30.736Z,65252.73
2023-05-25T08:47:35.459Z,65233.85
2023-05-25T08:48:42.483Z,65273.87
2023-05-25T08:49:44.803Z,65245.69
2023-05-25T08:50:48.539Z,65268.86
2023-05-25T08:51:52.820Z,65281.73
2023-05-25T08:52:56.888Z,65289.43
2023-05-25T08:54:02.603Z,65305.63
2023-05-25T08:55:07.821Z,65301.84
2023-05-25T08:56:22.805Z,65308.32
2023-05-25T08:57:43.835Z,65248.95
2023-05-25T08:58:52.180Z,65266.08
2023-05-25T09:00:04.228Z,65269.41
2023-05-25T09:01:07.978Z,65239.49
2023-05-25T09:02:30.500Z,65232.75
2023-05-25T09:03:34.263Z,65233.39
2023-05-25T09:04:37.395Z,65223.22
2023-05-25T09:05:39.539Z,65200.05
2023-05-25T09:06:42.054Z,65198.96
2023-05-25T09:07:45.874Z,65210.53
2023-05-25T09:08:48.486Z,65188.29
2023-05-25T09:09:51.387Z,65182.09
2023-05-25T09:10:55.786Z,65168.93
2023-05-25T09:11:58.741Z,65179.50
2023-05-25T09:13:12.758Z,65174.88
2023-05-25T09:14:07.571Z,65151.27
2023-05-25T09:15:11.377Z,65134.06
2023-05-25T09:16:15.778Z,65141.65
2023-05-25T09:17:17.887Z,65143.31
2023-05-25T09:18:20.164Z,65134.54
2023-05-25T09:19:22.225Z,65126.11
2023-05-25T09:20:25.256Z,65128.89
2023-05-25T09:21:27.412Z,65118.99
2023-05-25T09:22:29.360Z,65143.86
2023-05-25T09:23:32.015Z,65132.77
2023-05-25T09:24:33.931Z,65119.42
2023-05-25T09:25:37.946Z,65142.84
2023-05-25T09:26:41.018Z,65128.96
2023-05-25T09:27:46.077Z,65139.43
2023-05-25T09:28:48.028Z,65158.14
2023-05-25T09:29:53.249Z,65157.20
2023-05-25T09:30:56.022Z,65147.84
2023-05-25T09:31:59.814Z,65160.52
2023-05-25T09:33:13.375Z,65158.86
2023-05-25T09:34:15.932Z,65159.23
2023-05-25T09:35:18.045Z,65155.05
2023-05-25T09:36:21.233Z,65149.98
2023-05-25T09:37:23.987Z,65171.00
2023-05-25T09:38:26.238Z,65152.29
2023-05-25T09:39:29.690Z,65143.41
2023-05-25T09:40:33.660Z,65138.32
2023-05-25T09:41:36.617Z,65143.86
2023-05-25T09:42:39.048Z,65143.31
2023-05-25T09:43:44.943Z,65160.52
2023-05-25T09:44:45.020Z,65138.89
2023-05-25T09:45:47.214Z,65160.52
2023-05-25T09:46:50.086Z,65160.05
2023-05-25T09:49:09.538Z,65177.74
2023-05-25T09:50:11.776Z,65183.86
2023-05-25T09:51:13.698Z,65181.62
2023-05-25T09:52:15.595Z,65181.25
2023-05-25T09:53:17.982Z,65191.15
2023-05-25T09:54:21.780Z,65206.72
2023-05-25T09:55:23.704Z,65211.17
2023-05-25T09:56:27.106Z,65192.91
2023-05-25T09:57:29.152Z,65171.00
2023-05-25T09:58:31.046Z,65161.64
2023-05-25T09:59:33.036Z,65165.15
2023-05-25T10:00:35.126Z,65178.29
2023-05-25T10:01:37.366Z,65121.75
2023-05-25T10:02:40.687Z,65130.55
2023-05-25T10:03:59.841Z,65159.41
2023-05-25T10:04:50.323Z,65171.00
2023-05-25T10:05:53.756Z,65175.43
2023-05-25T10:06:56.977Z,65176.72
2023-05-25T10:08:01.759Z,65184.03
2023-05-25T10:09:07.519Z,65179.88
2023-05-25T10:10:12.932Z,65170.05
2023-05-25T10:11:15.963Z,65159.41
2023-05-25T10:12:19.616Z,65174.31
2023-05-25T10:13:22.176Z,65157.29
2023-05-25T10:14:29.707Z,65163.86
2023-05-25T10:15:32.744Z,65155.05
2023-05-25T10:16:38.041Z,65163.86
2023-05-25T10:17:46.723Z,65156.72
2023-05-25T10:19:10.859Z,65158.21
2023-05-25T10:20:14.296Z,65161.64
2023-05-25T10:21:18.633Z,65163.96
2023-05-25T10:22:41.291Z,65171.62
2023-05-25T10:23:53.301Z,65158.39
2023-05-25T10:25:08.282Z,65152.76
2023-05-25T10:26:17.146Z,65139.43
2023-05-25T10:27:27.556Z,65142.12
2023-05-25T10:28:29.349Z,65126.03
2023-05-25T10:29:34.873Z,65117.30
2023-05-25T10:30:38.795Z,65125.56
2023-05-25T10:31:41.674Z,65100.00
2023-05-25T10:32:45.915Z,65082.79
2023-05-25T10:33:52.033Z,65077.25
2023-05-25T10:34:52.956Z,65062.83
2023-05-25T10:36:09.261Z,65065.52
2023-05-25T10:37:02.289Z,65031.00
2023-05-25T10:38:05.112Z,65031.00
2023-05-25T10:39:09.236Z,65038.40
2023-05-25T10:40:12.838Z,65014.55
2023-05-25T10:41:15.448Z,65007.14
2023-05-25T10:42:19.153Z,65004.01
2023-05-25T10:43:23.200Z,65004.01
2023-05-25T10:44:25.425Z,64963.62
2023-05-25T10:45:28.204Z,64973.43
2023-05-25T10:46:30.254Z,64970.18
2023-05-25T10:47:33.944Z,64955.10
2023-05-25T10:48:41.453Z,64958.51
2023-05-25T10:49:58.207Z,64960.56
2023-05-25T10:51:00.506Z,64953.54
2023-05-25T10:52:02.679Z,64966.10
2023-05-25T10:53:10.433Z,64962.97
2023-05-25T10:54:13.252Z,64956.30
2023-05-25T10:55:15.165Z,64949.09
2023-05-25T10:56:17.388Z,64966.30
2023-05-25T10:57:22.045Z,64949.09
2023-05-25T10:58:26.786Z,64950.76
2023-05-25T10:59:29.759Z,64923.77
2023-05-25T11:00:32.033Z,64935.34
2023-05-25T11:01:37.997Z,64935.88
2023-05-25T11:02:49.844Z,64954.09
2023-05-25T11:04:10.900Z,64941.97
2023-05-25T11:05:29.986Z,64950.66
2023-05-25T11:06:39.959Z,64928.58
2023-05-25T11:09:03.472Z,64912.15
2023-05-25T11:10:07.752Z,64917.50
2023-05-25T11:11:09.736Z,64921.48
2023-05-25T11:12:19.913Z,64923.04
2023-05-25T11:13:38.048Z,64930.71
2023-05-25T11:14:40.700Z,64912.41
2023-05-25T11:15:42.969Z,64918.60
2023-05-25T11:17:05.776Z,64916.94
2023-05-25T11:18:12.353Z,64920.73
2023-05-25T11:19:14.930Z,64899.77
2023-05-25T11:20:26.215Z,64892.55
2023-05-25T11:21:29.950Z,64885.92
2023-05-25T11:22:33.718Z,64872.03
2023-05-25T11:23:56.365Z,64852.10
2023-05-25T11:25:00.065Z,64856.98
2023-05-25T11:26:05.179Z,64855.89
2023-05-25T11:27:07.215Z,64840.64
2023-05-25T11:28:09.606Z,64844.33
2023-05-25T11:29:14.876Z,64838.71
2023-05-25T11:30:18.977Z,64842.69
2023-05-25T11:31:29.721Z,64830.48
2023-05-25T11:32:31.980Z,64831.70
2023-05-25T11:33:33.948Z,64834.73
2023-05-25T11:34:36.408Z,64834.38
2023-05-25T11:35:38.418Z,64829.20
2023-05-25T11:36:41.691Z,64824.40
2023-05-25T11:37:47.563Z,64830.30
2023-05-25T11:39:02.574Z,64840.82
2023-05-25T11:39:54.384Z,64827.73
2023-05-25T11:40:56.596Z,64839.91
2023-05-25T11:42:03.997Z,64839.37
2023-05-25T11:43:08.208Z,64841.66
2023-05-25T11:44:10.321Z,64854.31
2023-05-25T11:45:14.035Z,64849.32
2023-05-25T11:46:18.022Z,64846.46
2023-05-25T11:47:22.066Z,64853.11
2023-05-25T11:48:24.314Z,64851.45
2023-05-25T11:49:27.052Z,64848.77
2023-05-25T11:50:29.312Z,64835.47
2023-05-25T11:51:31.303Z,64832.71
2023-05-25T11:52:34.533Z,64847.57
2023-05-25T11:53:41.982Z,64849.89
2023-05-25T11:54:45.346Z,64842.12
2023-05-25T11:55:53.678Z,64846.56
2023-05-25T11:56:55.908Z,64854.31
2023-05-25T11:57:59.184Z,64847.11
2023-05-25T11:59:01.198Z,64856.33
2023-05-25T12:00:04.218Z,64842.69
2023-05-25T12:01:16.598Z,64847.66
2023-05-25T12:02:19.702Z,64849.89
2023-05-25T12:03:31.632Z,64871.40
2023-05-25T12:04:33.943Z,64877.61
2023-05-25T12:05:39.654Z,64888.50
2023-05-25T12:06:41.796Z,64878.03
2023-05-25T12:07:44.604Z,64880.93
2023-05-25T12:08:46.700Z,64875.93
2023-05-25T12:09:49.216Z,64874.70
2023-05-25T12:10:51.503Z,64880.71
2023-05-25T12:11:53.773Z,64879.27
2023-05-25T12:12:55.805Z,64882.39
2023-05-25T12:13:58.745Z,64872.60
2023-05-25T12:15:00.850Z,64884.26
2023-05-25T12:16:03.102Z,64889.23
2023-05-25T12:17:06.589Z,64890.34
2023-05-25T12:18:08.719Z,64899.77
2023-05-25T12:19:11.480Z,64910.67
2023-05-25T12:20:16.722Z,64913.06
2023-05-25T12:21:20.926Z,64915.27
2023-05-25T12:22:23.159Z,64923.14
2023-05-25T12:23:25.297Z,64922.39
2023-05-25T12:24:28.130Z,64920.83
2023-05-25T12:25:42.358Z,64941.71
2023-05-25T12:26:34.029Z,64960.17
2023-05-25T12:27:36.748Z,64959.62